createdAt,value
2019-01-04T00:01:17.591Z,101086.84
2019-01-04T00:03:46.151Z,101081.62
2019-01-04T00:06:14.603Z,101083.95
2019-01-04T00:08:42.990Z,101076.00
2019-01-04T00:11:11.366Z,101082.20
2019-01-04T00:13:39.765Z,101084.47
2019-01-04T00:16:08.213Z,101079.69
2019-01-04T00:18:36.600Z,101076.66
2019-01-04T00:21:04.999Z,101070.06
2019-01-04T00:23:33.389Z,101074.10
2019-01-04T00:26:02.066Z,101074.10
2019-01-04T00:28:30.452Z,101073.27
2019-01-04T00:30:58.831Z,101068.03
2019-01-04T00:33:27.231Z,101058.02
2019-01-04T00:35:55.609Z,101056.77
2019-01-04T00:38:23.996Z,101063.38
2019-01-04T00:40:52.374Z,101062.97
2019-01-04T00:43:20.766Z,101065.23
2019-01-04T00:45:49.152Z,101072.36
2019-01-04T00:48:17.530Z,101070.69
2019-01-04T00:50:45.916Z,101070.69
2019-01-04T00:53:14.293Z,101074.66
2019-01-04T00:56:04.029Z,101071.69
2019-01-04T00:58:56.492Z,101065.97
2019-01-04T01:02:01.363Z,101058.58
2019-01-04T01:05:01.169Z,101060.00
2019-01-04T01:07:35.576Z,101046.02
2019-01-04T01:10:35.677Z,101040.02
2019-01-04T01:13:21.880Z,101032.98
2019-01-04T01:16:13.449Z,101043.63
2019-01-04T01:19:00.061Z,101059.19
2019-01-04T01:21:40.484Z,101073.78
2019-01-04T01:24:29.096Z,101073.84
2019-01-04T01:27:34.015Z,101063.80
2019-01-04T01:30:14.255Z,101062.48
2019-01-04T01:33:06.611Z,101072.26
2019-01-04T01:35:40.695Z,101081.09
2019-01-04T01:38:27.849Z,101082.91
2019-01-04T01:41:05.028Z,101075.48
2019-01-04T01:43:53.262Z,101077.70
2019-01-04T01:46:33.044Z,101086.06
2019-01-04T01:49:16.588Z,101080.41
2019-01-04T01:51:50.765Z,101080.86
2019-01-04T01:54:19.146Z,101078.25
2019-01-04T01:56:47.536Z,101074.77
2019-01-04T01:59:15.925Z,101083.55
2019-01-04T02:01:45.550Z,101096.77
2019-01-04T02:04:13.915Z,101095.06
2019-01-04T02:06:42.298Z,101091.54
2019-01-04T02:09:11.288Z,101085.86
2019-01-04T02:11:39.666Z,101088.95
2019-01-04T02:14:08.050Z,101094.67
2019-01-04T02:16:36.436Z,101096.05
2019-01-04T02:19:04.830Z,101089.44
2019-01-04T02:21:33.198Z,101088.14
2019-01-04T02:24:01.589Z,101083.41
2019-01-04T02:26:29.985Z,101086.05
2019-01-04T02:28:58.374Z,101088.21
2019-01-04T02:31:26.758Z,101084.30
2019-01-04T02:33:55.146Z,101078.63
2019-01-04T02:36:23.521Z,101087.01
2019-01-04T02:38:51.926Z,101085.75
2019-01-04T02:41:20.306Z,101087.08
2019-01-04T02:43:48.690Z,101099.42
2019-01-04T02:46:17.068Z,101104.78
2019-01-04T02:48:45.449Z,101113.17
2019-01-04T02:51:13.837Z,101106.16
2019-01-04T02:53:42.255Z,101103.07
2019-01-04T02:56:10.641Z,101101.81
2019-01-04T02:58:39.022Z,101097.84
2019-01-04T03:01:08.078Z,101095.70
2019-01-04T03:03:36.461Z,101096.16
2019-01-04T03:06:04.870Z,101092.64
2019-01-04T03:08:33.235Z,101099.31
2019-01-04T03:11:01.620Z,101084.31
2019-01-04T03:13:29.997Z,101079.95
2019-01-04T03:15:58.388Z,101075.56
2019-01-04T03:18:26.764Z,101080.41
2019-01-04T03:20:55.152Z,101077.82
2019-01-04T03:23:23.533Z,101075.17
2019-01-04T03:25:51.925Z,101068.63
2019-01-04T03:28:20.308Z,101074.75
2019-01-04T03:30:48.716Z,101070.45
2019-01-04T03:33:17.084Z,101072.17
2019-01-04T03:35:45.471Z,101077.07
2019-01-04T03:38:13.865Z,101074.00
2019-01-04T03:40:42.315Z,101070.97
2019-01-04T03:43:10.716Z,101075.39
2019-01-04T03:45:39.085Z,101076.31
2019-01-04T03:48:07.490Z,101074.13
2019-01-04T03:50:35.923Z,101081.61
2019-01-04T03:53:04.319Z,101068.45
2019-01-04T03:55:32.699Z,101068.02
2019-01-04T03:58:01.076Z,101078.66
2019-01-04T04:00:29.454Z,101078.66
2019-01-04T04:02:57.841Z,101070.79
2019-01-04T04:05:26.218Z,101073.92
2019-01-04T04:07:54.602Z,101076.14
2019-01-04T04:10:22.978Z,101081.43
2019-01-04T04:12:51.362Z,101076.59
2019-01-04T04:15:19.746Z,101074.88
2019-01-04T04:17:48.133Z,101077.16
2019-01-04T04:20:16.511Z,101071.88
2019-01-04T04:22:44.903Z,101057.33
2019-01-04T04:25:13.284Z,101054.74
2019-01-04T04:27:41.669Z,101051.71
2019-01-04T04:30:10.048Z,101053.48
2019-01-04T04:32:38.438Z,101051.32
2019-01-04T04:35:06.825Z,101062.80
2019-01-04T04:37:35.210Z,101061.08
2019-01-04T04:40:03.661Z,101054.05
2019-01-04T04:42:32.038Z,101057.63
2019-01-04T04:45:00.429Z,101063.36
2019-01-04T04:47:28.801Z,101073.94
2019-01-04T04:49:57.190Z,101067.00
2019-01-04T04:52:25.572Z,101069.64
2019-01-04T04:54:54.201Z,101073.19
2019-01-04T04:57:22.589Z,101072.80
2019-01-04T04:59:50.974Z,101067.12
2019-01-04T05:02:19.358Z,101062.73
2019-01-04T05:04:47.746Z,101068.47
2019-01-04T05:07:16.120Z,101069.40
2019-01-04T05:09:44.516Z,101062.84
2019-01-04T05:12:12.910Z,101069.03
2019-01-04T05:14:41.302Z,101067.33
2019-01-04T05:17:09.672Z,101068.64
2019-01-04T05:19:38.067Z,101073.06
2019-01-04T05:22:06.446Z,101062.55
2019-01-04T05:24:34.853Z,101061.70
2019-01-04T05:27:03.223Z,101055.55
2019-01-04T05:29:31.614Z,101057.77
2019-01-04T05:31:59.995Z,101067.95
2019-01-04T05:34:28.407Z,101064.44
2019-01-04T05:36:56.798Z,101060.95
2019-01-04T05:39:25.174Z,101057.88
2019-01-04T05:41:53.571Z,101062.33
2019-01-04T05:44:21.964Z,101060.14
2019-01-04T05:46:50.348Z,101059.71
2019-01-04T05:49:18.725Z,101051.00
2019-01-04T05:51:47.110Z,101047.03
2019-01-04T05:54:15.494Z,101042.20
2019-01-04T05:56:43.879Z,101043.97
2019-01-04T05:59:12.253Z,101048.87
2019-01-04T06:01:40.642Z,101054.99
2019-01-04T06:04:09.038Z,101055.05
2019-01-04T06:06:37.418Z,101057.30
2019-01-04T06:09:07.558Z,101055.53
2019-01-04T06:11:35.961Z,101056.43
2019-01-04T06:14:04.329Z,101052.52
2019-01-04T06:16:32.715Z,101055.17
2019-01-04T06:19:01.096Z,101061.33
2019-01-04T06:21:29.485Z,101046.81
2019-01-04T06:23:57.867Z,101037.56
2019-01-04T06:26:26.257Z,101031.86
2019-01-04T06:28:54.637Z,101031.47
2019-01-04T06:31:23.031Z,101034.11
2019-01-04T06:33:51.416Z,101035.04
2019-01-04T06:36:19.839Z,101031.08
2019-01-04T06:38:48.303Z,101034.62
2019-01-04T06:41:16.656Z,101021.85
2019-01-04T06:43:45.049Z,101028.07
2019-01-04T06:46:13.443Z,101034.28
2019-01-04T06:48:41.835Z,101045.70
2019-01-04T06:51:10.209Z,101040.47
2019-01-04T06:53:38.600Z,101036.50
2019-01-04T06:56:06.974Z,101030.77
2019-01-04T06:58:35.368Z,101037.83
2019-01-04T07:01:03.744Z,101032.15
2019-01-04T07:03:32.148Z,101038.75
2019-01-04T07:06:00.520Z,101053.28
2019-01-04T07:08:28.906Z,101044.48
2019-01-04T07:10:57.287Z,101040.58
2019-01-04T07:13:25.675Z,101056.89
2019-01-04T07:15:54.054Z,101054.24
2019-01-04T07:18:22.448Z,101060.84
2019-01-04T07:20:50.827Z,101060.91
2019-01-04T07:23:19.202Z,101064.87
2019-01-04T07:25:47.595Z,101067.51
2019-01-04T07:28:15.975Z,101069.28
2019-01-04T07:30:44.360Z,101060.57
2019-01-04T07:33:12.735Z,101060.96
2019-01-04T07:35:41.190Z,101062.34
2019-01-04T07:38:09.577Z,101064.98
2019-01-04T07:40:37.957Z,101068.08
2019-01-04T07:43:07.297Z,101065.43
2019-01-04T07:45:35.687Z,101058.44
2019-01-04T07:48:04.072Z,101059.31
2019-01-04T07:50:32.461Z,101053.20
2019-01-04T07:53:00.836Z,101052.34
2019-01-04T07:55:29.284Z,101050.63
2019-01-04T07:57:57.656Z,101050.63
2019-01-04T08:00:26.100Z,101049.38
2019-01-04T08:02:54.484Z,101050.31
2019-01-04T08:05:22.872Z,101052.56
2019-01-04T08:07:51.258Z,101049.11
2019-01-04T08:10:19.634Z,101045.76
2019-01-04T08:12:48.024Z,101053.13
2019-01-04T08:15:16.424Z,101047.02
2019-01-04T08:17:44.805Z,101047.47
2019-01-04T08:20:13.363Z,101039.16
2019-01-04T08:22:41.741Z,101029.48
2019-01-04T08:25:10.184Z,101029.97
2019-01-04T08:27:38.577Z,101045.39
2019-01-04T08:30:10.210Z,101042.36
2019-01-04T08:32:38.584Z,101045.89
2019-01-04T08:35:07.106Z,101048.53
2019-01-04T08:37:35.542Z,101054.30
2019-01-04T08:40:04.866Z,101065.76
2019-01-04T08:42:33.258Z,101057.89
2019-01-04T08:45:01.628Z,101061.02
2019-01-04T08:47:30.004Z,101061.46
2019-01-04T08:49:58.398Z,101063.23
2019-01-04T08:52:26.782Z,101060.59
2019-01-04T08:54:55.185Z,101062.84
2019-01-04T08:57:23.561Z,101056.23
2019-01-04T08:59:51.946Z,101055.81
2019-01-04T09:02:20.327Z,101059.38
2019-01-04T09:04:48.715Z,101046.17
2019-01-04T09:07:17.095Z,101040.52
2019-01-04T09:09:45.479Z,101040.08
2019-01-04T09:12:13.864Z,101037.05
2019-01-04T09:14:42.250Z,101033.08
2019-01-04T09:17:10.632Z,101036.17
2019-01-04T09:19:39.019Z,101031.34
2019-01-04T09:22:07.394Z,101020.77
2019-01-04T09:24:35.780Z,101022.58
2019-01-04T09:27:04.497Z,101016.42
2019-01-04T09:29:32.899Z,101005.44
2019-01-04T09:32:01.280Z,101008.08
2019-01-04T09:34:29.665Z,101006.75
2019-01-04T09:36:58.052Z,101004.11
2019-01-04T09:39:26.913Z,100997.13
2019-01-04T09:41:55.435Z,100994.48
2019-01-04T09:44:23.814Z,101003.33
2019-01-04T09:46:52.197Z,101002.91
2019-01-04T09:49:20.637Z,101002.96
2019-01-04T09:51:49.068Z,100997.62
2019-01-04T09:54:17.441Z,100997.68
2019-01-04T09:56:45.830Z,101000.32
2019-01-04T09:59:14.206Z,100988.10
2019-01-04T10:01:42.600Z,100985.41
2019-01-04T10:04:10.974Z,100981.95
2019-01-04T10:06:39.373Z,100982.40
2019-01-04T10:09:08.223Z,100973.22
2019-01-04T10:11:36.614Z,100970.58
2019-01-04T10:14:04.994Z,100968.38
2019-01-04T10:16:33.384Z,100959.63
2019-01-04T10:19:01.771Z,100961.78
2019-01-04T10:21:30.160Z,100964.84
2019-01-04T10:23:58.540Z,100957.38
2019-01-04T10:26:26.928Z,100958.25
2019-01-04T10:28:55.313Z,100951.22
2019-01-04T10:31:23.701Z,100952.09
2019-01-04T10:33:52.972Z,100948.58
2019-01-04T10:36:21.354Z,100937.18
2019-01-04T10:38:50.309Z,100934.06
2019-01-04T10:41:18.689Z,100926.62
2019-01-04T10:43:47.085Z,100914.73
2019-01-04T10:46:15.459Z,100904.18
2019-01-04T10:48:43.852Z,100905.50
2019-01-04T10:51:12.225Z,100898.95
2019-01-04T10:53:40.621Z,100893.68
2019-01-04T10:56:09.021Z,100893.62
2019-01-04T10:58:37.423Z,100895.00
2019-01-04T11:01:05.798Z,100889.72
2019-01-04T11:03:34.431Z,100892.36
2019-01-04T11:06:02.831Z,100891.81
2019-01-04T11:08:31.215Z,100888.67
2019-01-04T11:10:59.592Z,100886.54
2019-01-04T11:13:27.979Z,100887.92
2019-01-04T11:15:56.360Z,100891.04
2019-01-04T11:18:24.744Z,100888.84
2019-01-04T11:20:53.263Z,100884.46
2019-01-04T11:23:59.658Z,100878.80
2019-01-04T11:26:43.112Z,100879.18
2019-01-04T11:29:20.066Z,100866.58
2019-01-04T11:32:03.323Z,100864.84
2019-01-04T11:34:37.446Z,100862.62
2019-01-04T11:37:23.952Z,100863.97
2019-01-04T11:40:01.118Z,100859.56
2019-01-04T11:42:38.268Z,100859.17
2019-01-04T11:45:24.812Z,100857.85
2019-01-04T11:47:56.238Z,100850.32
2019-01-04T11:50:36.243Z,100843.39
2019-01-04T11:53:07.920Z,100838.50
2019-01-04T11:55:36.307Z,100839.43
2019-01-04T11:58:04.688Z,100837.63
2019-01-04T12:00:33.073Z,100825.75
2019-01-04T12:03:01.466Z,100831.91
2019-01-04T12:05:29.846Z,100826.63
2019-01-04T12:07:58.227Z,100830.13
2019-01-04T12:10:26.619Z,100827.49
2019-01-04T12:12:54.999Z,100817.77
2019-01-04T12:15:23.386Z,100809.47
2019-01-04T12:17:51.786Z,100811.66
2019-01-04T12:20:20.189Z,100814.30
2019-01-04T12:22:48.570Z,100810.78
2019-01-04T12:25:16.954Z,100802.48
2019-01-04T12:27:45.332Z,100798.45
2019-01-04T12:30:13.782Z,100790.54
2019-01-04T12:32:42.166Z,100796.72
2019-01-04T12:35:10.546Z,100800.67
2019-01-04T12:37:38.946Z,100798.97
2019-01-04T12:40:07.704Z,100807.27
2019-01-04T12:42:36.094Z,100807.33
2019-01-04T12:45:05.414Z,100806.02
2019-01-04T12:47:33.798Z,100807.81
2019-01-04T12:50:02.187Z,100806.02
2019-01-04T12:52:30.573Z,100808.20
2019-01-04T12:54:58.953Z,100803.80
2019-01-04T12:57:27.369Z,100799.03
2019-01-04T12:59:55.750Z,100802.98
2019-01-04T13:02:24.402Z,100790.69
2019-01-04T13:04:52.790Z,100789.79
2019-01-04T13:07:21.251Z,100796.84
2019-01-04T13:09:49.635Z,100785.41
2019-01-04T13:12:18.026Z,100787.20
2019-01-04T13:14:46.402Z,100788.53
2019-01-04T13:17:14.809Z,100764.35
2019-01-04T13:19:43.184Z,100763.91
2019-01-04T13:22:11.563Z,100762.20
2019-01-04T13:24:39.947Z,100766.16
2019-01-04T13:27:08.322Z,100771.88
2019-01-04T13:29:36.705Z,100772.78
2019-01-04T13:32:05.082Z,100759.13
2019-01-04T13:34:33.476Z,100766.60
2019-01-04T13:37:01.850Z,100754.30
2019-01-04T13:39:30.252Z,100751.73
2019-01-04T13:41:58.621Z,100761.84
2019-01-04T13:44:27.008Z,100749.09
2019-01-04T13:46:55.678Z,100747.31
2019-01-04T13:49:24.069Z,100733.73
2019-01-04T13:51:52.445Z,100727.14
2019-01-04T13:54:20.831Z,100730.22
2019-01-04T13:56:49.214Z,100717.48
2019-01-04T13:59:17.610Z,100717.48
2019-01-04T14:01:45.981Z,100724.08
2019-01-04T14:04:14.372Z,100722.69
2019-01-04T14:06:42.745Z,100721.44
2019-01-04T14:09:11.135Z,100720.98
2019-01-04T14:11:39.510Z,100716.16
2019-01-04T14:14:07.894Z,100724.08
2019-01-04T14:16:36.277Z,100730.67
2019-01-04T14:19:04.665Z,100734.24
2019-01-04T14:21:33.042Z,100736.88
2019-01-04T14:24:01.425Z,100735.11
2019-01-04T14:26:29.800Z,100726.33
2019-01-04T14:28:58.179Z,100734.24
2019-01-04T14:31:26.945Z,100734.66
2019-01-04T14:33:55.338Z,100738.68
2019-01-04T14:36:23.728Z,100739.13
2019-01-04T14:38:52.112Z,100736.97
2019-01-04T14:41:23.397Z,100726.00
2019-01-04T14:43:50.606Z,100721.64
2019-01-04T14:46:18.997Z,100713.73
2019-01-04T14:48:47.378Z,100718.14
2019-01-04T14:51:15.768Z,100723.86
2019-01-04T14:53:44.147Z,100734.03
2019-01-04T14:56:13.502Z,100714.23
2019-01-04T14:58:41.884Z,100706.39
2019-01-04T15:01:10.282Z,100705.52
2019-01-04T15:03:38.649Z,100709.47
2019-01-04T15:06:07.038Z,100706.89
2019-01-04T15:08:35.419Z,100704.70
2019-01-04T15:11:03.802Z,100701.67
2019-01-04T15:13:32.182Z,100691.13
2019-01-04T15:16:00.593Z,100685.84
2019-01-04T15:18:28.968Z,100692.45
2019-01-04T15:20:58.384Z,100707.02
2019-01-04T15:23:26.767Z,100708.28
2019-01-04T15:25:55.140Z,100715.74
2019-01-04T15:28:23.527Z,100725.81
2019-01-04T15:30:51.908Z,100723.66
2019-01-04T15:33:20.294Z,100713.55
2019-01-04T15:35:48.673Z,100709.98
2019-01-04T15:38:17.061Z,100724.50
2019-01-04T15:40:45.446Z,100733.34
2019-01-04T15:43:13.830Z,100701.23
2019-01-04T15:45:42.212Z,100697.66
2019-01-04T15:48:10.612Z,100702.07
2019-01-04T15:50:39.002Z,100699.85
2019-01-04T15:53:07.389Z,100695.47
2019-01-04T15:55:35.768Z,100702.07
2019-01-04T15:58:04.161Z,100676.94
2019-01-04T16:00:32.543Z,100669.02
2019-01-04T16:03:00.930Z,100671.21
2019-01-04T16:05:29.559Z,100673.85
2019-01-04T16:07:57.951Z,100685.73
2019-01-04T16:10:26.327Z,100691.00
2019-01-04T16:12:54.713Z,100699.78
2019-01-04T16:15:23.090Z,100706.39
2019-01-04T16:17:51.479Z,100703.33
2019-01-04T16:20:19.858Z,100698.86
2019-01-04T16:22:48.246Z,100694.45
2019-01-04T16:25:18.268Z,100697.09
2019-01-04T16:27:46.657Z,100682.13
2019-01-04T16:30:15.035Z,100682.97
2019-01-04T16:32:43.421Z,100690.88
2019-01-04T16:35:11.797Z,100679.42
2019-01-04T16:37:40.190Z,100678.56
2019-01-04T16:40:09.037Z,100685.58
2019-01-04T16:42:37.431Z,100672.83
2019-01-04T16:45:06.860Z,100669.26
2019-01-04T16:47:35.250Z,100668.75
2019-01-04T16:50:05.685Z,100668.75
2019-01-04T16:52:34.075Z,100668.75
2019-01-04T16:55:02.464Z,100661.77
2019-01-04T16:57:31.279Z,100660.83
2019-01-04T16:59:59.674Z,100656.39
2019-01-04T17:02:28.098Z,100656.20
2019-01-04T17:04:56.445Z,100653.56
2019-01-04T17:07:24.822Z,100654.44
2019-01-04T17:09:53.216Z,100649.45
2019-01-04T17:12:21.597Z,100649.84
2019-01-04T17:14:49.988Z,100650.28
2019-01-04T17:17:18.367Z,100649.70
2019-01-04T17:19:46.754Z,100649.70
2019-01-04T17:22:15.142Z,100650.06
2019-01-04T17:24:43.530Z,100649.58
2019-01-04T17:27:11.919Z,100651.70
2019-01-04T17:29:40.303Z,100657.95
2019-01-04T17:32:08.685Z,100656.44
2019-01-04T17:34:37.079Z,100648.81
2019-01-04T17:37:05.462Z,100650.94
2019-01-04T17:39:33.863Z,100650.94
2019-01-04T17:42:02.256Z,100642.47
2019-01-04T17:44:30.653Z,100641.50
2019-01-04T17:46:59.039Z,100652.06
2019-01-04T17:49:27.454Z,100658.14
2019-01-04T17:51:55.841Z,100653.25
2019-01-04T17:54:24.228Z,100666.88
2019-01-04T17:56:52.615Z,100660.66
2019-01-04T17:59:21.050Z,100655.83
2019-01-04T18:01:50.724Z,100658.95
2019-01-04T18:04:19.084Z,100668.58
2019-01-04T18:06:47.549Z,100658.75
2019-01-04T18:09:15.947Z,100666.23
2019-01-04T18:11:44.344Z,100666.23
2019-01-04T18:14:12.724Z,100670.95
2019-01-04T18:16:41.120Z,100662.45
2019-01-04T18:19:09.509Z,100663.98
2019-01-04T18:21:37.908Z,100670.46
2019-01-04T18:24:06.609Z,100667.69
2019-01-04T18:26:35.008Z,100664.08
2019-01-04T18:29:03.575Z,100660.26
2019-01-04T18:31:31.974Z,100659.64
2019-01-04T18:34:00.366Z,100654.22
2019-01-04T18:36:28.765Z,100656.93
2019-01-04T18:38:57.229Z,100651.75
2019-01-04T18:41:25.641Z,100658.70
2019-01-04T18:43:54.051Z,100666.19
2019-01-04T18:46:22.522Z,100666.78
2019-01-04T18:48:50.916Z,100671.83
2019-01-04T18:51:19.343Z,100671.96
2019-01-04T18:53:47.731Z,100670.28
2019-01-04T18:56:16.186Z,100676.23
2019-01-04T18:58:44.544Z,100675.91
2019-01-04T19:01:13.813Z,100672.53
2019-01-04T19:03:42.206Z,100673.11
2019-01-04T19:06:10.609Z,100681.20
2019-01-04T19:08:38.996Z,100681.86
2019-01-04T19:11:07.402Z,100677.94
2019-01-04T19:13:35.804Z,100676.77
2019-01-04T19:16:04.866Z,100673.78
2019-01-04T19:18:33.267Z,100673.03
2019-01-04T19:21:01.668Z,100672.69
2019-01-04T19:23:30.053Z,100661.98
2019-01-04T19:25:58.448Z,100671.28
2019-01-04T19:28:26.838Z,100666.88
2019-01-04T19:30:55.308Z,100668.23
2019-01-04T19:33:23.755Z,100655.48
2019-01-04T19:35:52.149Z,100656.05
2019-01-04T19:38:20.539Z,100655.19
2019-01-04T19:40:48.936Z,100650.44
2019-01-04T19:43:17.332Z,100660.19
2019-01-04T19:45:45.716Z,100657.62
2019-01-04T19:48:14.114Z,100647.17
2019-01-04T19:50:42.505Z,100649.12
2019-01-04T19:53:10.943Z,100640.09
2019-01-04T19:55:39.323Z,100641.09
2019-01-04T19:58:07.717Z,100637.35
2019-01-04T20:00:36.104Z,100647.29
2019-01-04T20:03:04.501Z,100645.62
2019-01-04T20:05:37.574Z,100646.79
2019-01-04T20:08:32.307Z,100640.80
2019-01-04T20:11:24.938Z,100638.77
2019-01-04T20:14:20.654Z,100637.90
2019-01-04T20:17:02.095Z,100641.25
2019-01-04T20:19:37.780Z,100654.89
2019-01-04T20:22:24.378Z,100646.39
2019-01-04T20:25:02.878Z,100646.67
2019-01-04T20:27:48.804Z,100645.76
2019-01-04T20:30:33.504Z,100644.27
2019-01-04T20:33:03.543Z,100638.87
2019-01-04T20:35:39.268Z,100648.56
2019-01-04T20:38:25.523Z,100652.14
2019-01-04T20:41:10.632Z,100654.16
2019-01-04T20:43:43.398Z,100654.41
2019-01-04T20:46:25.334Z,100653.91
2019-01-04T20:48:58.276Z,100645.02
2019-01-04T20:51:43.331Z,100640.09
2019-01-04T20:54:29.774Z,100640.50
2019-01-04T20:57:15.690Z,100635.19
2019-01-04T21:00:01.581Z,100641.83
2019-01-04T21:02:49.904Z,100643.87
2019-01-04T21:05:19.939Z,100638.56
2019-01-04T21:07:55.956Z,100641.54
2019-01-04T21:10:31.294Z,100635.11
2019-01-04T21:13:00.416Z,100632.34
2019-01-04T21:15:36.575Z,100619.73
2019-01-04T21:18:15.505Z,100620.50
2019-01-04T21:20:51.230Z,100617.83
2019-01-04T21:23:21.254Z,100613.22
2019-01-04T21:25:54.252Z,100602.77
2019-01-04T21:28:39.328Z,100596.47
2019-01-04T21:31:16.219Z,100592.20
2019-01-04T21:33:46.252Z,100583.38
2019-01-04T21:36:28.305Z,100574.64
2019-01-04T21:39:04.568Z,100584.95
2019-01-04T21:41:43.635Z,100575.67
2019-01-04T21:44:25.618Z,100581.35
2019-01-04T21:46:55.721Z,100569.95
2019-01-04T21:49:42.315Z,100569.20
2019-01-04T21:52:15.058Z,100572.78
2019-01-04T21:54:45.078Z,100571.86
2019-01-04T21:57:23.703Z,100570.13
2019-01-04T22:00:11.756Z,100575.21
2019-01-04T22:02:41.792Z,100572.61
2019-01-04T22:08:03.622Z,100579.33
2019-01-04T22:10:33.642Z,100569.67
2019-01-04T22:13:15.685Z,100569.80
2019-01-04T22:15:54.614Z,100565.83
2019-01-04T22:18:33.273Z,100567.23
2019-01-04T22:21:08.953Z,100560.66
2019-01-04T22:23:39.055Z,100562.94
2019-01-04T22:26:11.856Z,100559.05
2019-01-04T22:28:51.132Z,100551.55
2019-01-04T22:31:33.463Z,100547.66
2019-01-04T22:34:06.546Z,100547.28
2019-01-04T22:36:42.358Z,100545.55
2019-01-04T22:39:28.561Z,100551.80
2019-01-04T22:42:13.889Z,100550.56
2019-01-04T22:45:00.168Z,100543.14
2019-01-04T22:47:42.377Z,100541.45
2019-01-04T22:50:29.023Z,100532.70
2019-01-04T22:53:10.767Z,100527.95
2019-01-04T22:55:52.813Z,100536.85
2019-01-04T22:58:35.114Z,100534.25
2019-01-04T23:01:05.219Z,100533.50
2019-01-04T23:03:51.449Z,100531.31
2019-01-04T23:06:37.347Z,100529.53
2019-01-04T23:09:24.187Z,100530.94
2019-01-04T23:12:06.280Z,100521.71
2019-01-04T23:14:52.218Z,100519.14
2019-01-04T23:17:24.948Z,100514.33
2019-01-04T23:19:55.260Z,100511.36
2019-01-04T23:22:46.086Z,100514.87
2019-01-04T23:25:28.034Z,100518.85
2019-01-04T23:27:58.052Z,100514.55
2019-01-04T23:30:44.051Z,100511.44
2019-01-04T23:33:16.728Z,100517.20
2019-01-04T23:36:01.768Z,100520.34
2019-01-04T23:38:40.897Z,100518.61
2019-01-04T23:41:19.730Z,100520.48
2019-01-04T23:43:58.471Z,100508.42
2019-01-04T23:46:45.095Z,100512.16
2019-01-04T23:49:23.929Z,100510.45
2019-01-04T23:52:09.109Z,100506.06
2019-01-04T23:54:39.156Z,100497.73
2019-01-04T23:57:21.144Z,100499.06
